createdAt,value
2018-05-11T00:01:22.912Z,16.67
2018-05-11T00:02:22.849Z,16.59
2018-05-11T00:04:14.609Z,16.63
2018-05-11T00:05:14.541Z,16.63
2018-05-11T00:07:06.299Z,16.75
2018-05-11T00:08:06.242Z,16.67
2018-05-11T00:09:58.043Z,16.65
2018-05-11T00:10:57.953Z,16.60
2018-05-11T00:12:49.739Z,16.55
2018-05-11T00:13:49.678Z,16.65
2018-05-11T00:15:41.479Z,16.54
2018-05-11T00:16:41.405Z,16.60
2018-05-11T00:18:33.165Z,16.62
2018-05-11T00:19:33.173Z,16.65
2018-05-11T00:21:24.849Z,16.55
2018-05-11T00:22:24.786Z,16.55
2018-05-11T00:24:16.557Z,16.45
2018-05-11T00:25:16.488Z,16.47
2018-05-11T00:27:08.277Z,16.52
2018-05-11T00:28:08.215Z,16.52
2018-05-11T00:30:00.024Z,16.54
2018-05-11T00:30:59.942Z,16.69
2018-05-11T00:32:51.702Z,16.60
2018-05-11T00:33:51.640Z,16.40
2018-05-11T00:35:43.410Z,16.51
2018-05-11T00:36:43.337Z,16.45
2018-05-11T00:38:35.124Z,16.41
2018-05-11T00:39:35.046Z,16.59
2018-05-11T00:41:26.835Z,16.50
2018-05-11T00:42:26.777Z,16.47
2018-05-11T00:44:18.535Z,16.42
2018-05-11T00:45:18.463Z,16.44
2018-05-11T00:47:10.212Z,16.30
2018-05-11T00:48:10.151Z,16.23
2018-05-11T00:50:01.925Z,16.14
2018-05-11T00:51:01.904Z,16.10
2018-05-11T00:52:53.615Z,16.26
2018-05-11T00:53:53.540Z,16.18
2018-05-11T00:55:45.318Z,16.22
2018-05-11T00:56:45.245Z,16.22
2018-05-11T00:58:36.998Z,16.25
2018-05-11T00:59:36.934Z,16.17
2018-05-11T01:01:28.717Z,15.96
2018-05-11T01:02:28.643Z,15.89
2018-05-11T01:04:20.410Z,15.92
2018-05-11T01:05:20.335Z,15.93
2018-05-11T01:07:12.082Z,15.92
2018-05-11T01:08:12.024Z,15.95
2018-05-11T01:10:03.829Z,15.89
2018-05-11T01:11:03.740Z,15.89
2018-05-11T01:12:55.500Z,15.95
2018-05-11T01:13:55.439Z,15.81
2018-05-11T01:15:47.212Z,15.86
2018-05-11T01:16:47.191Z,15.88
2018-05-11T01:18:38.918Z,15.91
2018-05-11T01:19:38.855Z,15.85
2018-05-11T01:21:30.626Z,15.86
2018-05-11T01:22:30.556Z,15.80
2018-05-11T01:24:22.307Z,15.85
2018-05-11T01:25:22.251Z,15.93
2018-05-11T01:27:14.008Z,15.76
2018-05-11T01:28:13.940Z,15.66
2018-05-11T01:30:05.713Z,15.70
2018-05-11T01:31:05.632Z,15.68
2018-05-11T01:32:57.396Z,15.67
2018-05-11T01:33:57.332Z,15.64
2018-05-11T01:35:49.129Z,15.64
2018-05-11T01:36:49.059Z,15.64
2018-05-11T01:38:40.834Z,15.58
2018-05-11T01:39:40.833Z,15.46
2018-05-11T01:41:32.530Z,15.49
2018-05-11T01:42:32.460Z,15.48
2018-05-11T01:44:24.208Z,15.58
2018-05-11T01:45:24.147Z,15.67
2018-05-11T01:47:15.926Z,15.41
2018-05-11T01:48:15.843Z,15.49
2018-05-11T01:50:07.630Z,15.48
2018-05-11T01:51:07.539Z,15.51
2018-05-11T01:52:59.317Z,15.46
2018-05-11T01:53:59.259Z,15.58
2018-05-11T01:55:51.044Z,15.58
2018-05-11T01:56:50.978Z,15.60
2018-05-11T01:58:42.764Z,15.59
2018-05-11T01:59:42.735Z,15.58
2018-05-11T02:01:34.454Z,15.71
2018-05-11T02:02:34.385Z,15.59
2018-05-11T02:04:26.159Z,15.68
2018-05-11T02:05:26.096Z,15.67
2018-05-11T02:07:17.901Z,15.55
2018-05-11T02:08:17.826Z,15.67
2018-05-11T02:10:09.580Z,15.80
2018-05-11T02:11:09.519Z,15.67
2018-05-11T02:13:01.309Z,15.59
2018-05-11T02:14:01.241Z,15.55
2018-05-11T02:15:53.023Z,15.51
2018-05-11T02:16:52.950Z,15.37
2018-05-11T02:18:44.729Z,15.27
2018-05-11T02:19:44.662Z,15.25
2018-05-11T02:21:36.424Z,15.28
2018-05-11T02:22:36.354Z,15.18
2018-05-11T02:24:28.116Z,15.31
2018-05-11T02:25:28.053Z,15.31
2018-05-11T02:27:19.825Z,15.33
2018-05-11T02:28:19.797Z,15.20
2018-05-11T02:30:11.515Z,15.18
2018-05-11T02:31:11.464Z,15.12
2018-05-11T02:33:03.222Z,15.15
2018-05-11T02:34:03.153Z,15.18
2018-05-11T02:35:54.985Z,15.18
2018-05-11T02:36:54.846Z,15.15
2018-05-11T02:38:46.614Z,15.04
2018-05-11T02:39:46.556Z,15.05
2018-05-11T02:41:38.311Z,15.01
2018-05-11T02:42:38.247Z,15.09
2018-05-11T02:44:30.016Z,15.07
2018-05-11T02:45:29.946Z,15.11
2018-05-11T02:47:21.736Z,15.09
2018-05-11T02:48:21.656Z,15.00
2018-05-11T02:50:13.419Z,15.04
2018-05-11T02:51:13.363Z,15.05
2018-05-11T02:53:05.145Z,15.13
2018-05-11T02:54:05.071Z,15.25
2018-05-11T02:55:56.826Z,15.28
2018-05-11T02:56:56.773Z,15.28
2018-05-11T02:58:48.535Z,15.20
2018-05-11T02:59:48.460Z,15.22
2018-05-11T03:01:40.234Z,15.25
2018-05-11T03:02:40.160Z,15.23
2018-05-11T03:04:31.926Z,15.16
2018-05-11T03:05:31.852Z,15.05
2018-05-11T03:07:23.640Z,15.13
2018-05-11T03:08:23.566Z,15.03
2018-05-11T03:10:15.323Z,14.95
2018-05-11T03:11:15.262Z,15.09
2018-05-11T03:13:07.022Z,14.97
2018-05-11T03:14:06.953Z,14.94
2018-05-11T03:15:58.743Z,14.97
2018-05-11T03:16:58.679Z,14.93
2018-05-11T03:18:50.477Z,14.94
2018-05-11T03:19:50.392Z,14.95
2018-05-11T03:21:42.187Z,15.01
2018-05-11T03:22:42.092Z,15.03
2018-05-11T03:24:33.876Z,15.01
2018-05-11T03:25:33.798Z,15.13
2018-05-11T03:27:25.570Z,15.00
2018-05-11T03:28:25.499Z,15.00
2018-05-11T03:30:17.253Z,15.04
2018-05-11T03:31:17.194Z,15.03
2018-05-11T03:33:08.993Z,14.95
2018-05-11T03:34:08.923Z,14.94
2018-05-11T03:36:00.673Z,15.01
2018-05-11T03:37:00.605Z,14.97
2018-05-11T03:38:52.376Z,14.91
2018-05-11T03:39:52.294Z,14.83
2018-05-11T03:41:44.084Z,14.83
2018-05-11T03:42:44.019Z,14.86
2018-05-11T03:44:35.791Z,14.95
2018-05-11T03:45:35.716Z,14.86
2018-05-11T03:47:27.493Z,14.85
2018-05-11T03:48:27.425Z,14.82
2018-05-11T03:50:19.181Z,14.83
2018-05-11T03:51:19.119Z,14.90
2018-05-11T03:53:10.976Z,14.82
2018-05-11T03:54:10.821Z,14.80
2018-05-11T03:56:02.577Z,14.86
2018-05-11T03:57:02.513Z,14.75
2018-05-11T03:58:54.276Z,14.79
2018-05-11T03:59:54.250Z,14.82
2018-05-11T04:01:46.001Z,14.80
2018-05-11T04:02:45.940Z,14.85
2018-05-11T04:04:37.715Z,14.85
2018-05-11T04:05:37.642Z,14.85
2018-05-11T04:07:29.440Z,14.78
2018-05-11T04:08:29.361Z,14.78
2018-05-11T04:10:21.148Z,14.80
2018-05-11T04:11:21.067Z,14.74
2018-05-11T04:13:12.946Z,14.85
2018-05-11T04:14:12.798Z,14.83
2018-05-11T04:16:04.574Z,14.93
2018-05-11T04:17:04.510Z,14.85
2018-05-11T04:18:56.276Z,14.85
2018-05-11T04:19:56.205Z,14.95
2018-05-11T04:21:47.992Z,14.86
2018-05-11T04:22:47.938Z,14.87
2018-05-11T04:24:39.691Z,14.80
2018-05-11T04:25:39.622Z,14.83
2018-05-11T04:27:31.394Z,14.79
2018-05-11T04:28:31.329Z,14.74
2018-05-11T04:30:23.094Z,14.71
2018-05-11T04:31:23.024Z,14.72
2018-05-11T04:33:14.786Z,14.78
2018-05-11T04:34:14.725Z,14.79
2018-05-11T04:36:06.493Z,14.80
2018-05-11T04:37:06.413Z,14.85
2018-05-11T04:38:58.201Z,14.85
2018-05-11T04:39:58.125Z,14.82
2018-05-11T04:41:49.892Z,14.80
2018-05-11T04:42:49.823Z,14.79
2018-05-11T04:44:41.601Z,14.74
2018-05-11T04:45:41.524Z,14.78
2018-05-11T04:47:33.278Z,14.78
2018-05-11T04:48:33.221Z,14.67
2018-05-11T04:50:24.998Z,14.82
2018-05-11T04:51:24.916Z,14.82
2018-05-11T04:53:16.671Z,14.83
2018-05-11T04:54:16.618Z,14.85
2018-05-11T04:56:08.390Z,14.80
2018-05-11T04:57:08.312Z,14.83
2018-05-11T04:59:00.096Z,14.98
2018-05-11T05:00:00.015Z,14.95
2018-05-11T05:01:51.784Z,14.86
2018-05-11T05:02:51.706Z,14.90
2018-05-11T05:04:43.501Z,14.74
2018-05-11T05:05:43.419Z,14.74
2018-05-11T05:07:35.200Z,14.83
2018-05-11T05:08:35.131Z,14.80
2018-05-11T05:10:26.915Z,14.86
2018-05-11T05:11:26.846Z,14.95
2018-05-11T05:13:18.605Z,14.98
2018-05-11T05:14:18.540Z,14.95
2018-05-11T05:16:10.342Z,15.05
2018-05-11T05:17:10.246Z,15.09
2018-05-11T05:19:02.025Z,14.91
2018-05-11T05:20:01.948Z,14.85
2018-05-11T05:21:53.735Z,14.85
2018-05-11T05:22:53.657Z,14.91
2018-05-11T05:24:45.461Z,14.83
2018-05-11T05:25:45.392Z,14.82
2018-05-11T05:27:37.818Z,14.83
2018-05-11T05:28:37.723Z,14.80
2018-05-11T05:30:29.509Z,14.80
2018-05-11T05:31:29.427Z,14.83
2018-05-11T05:33:21.179Z,14.85
2018-05-11T05:34:21.131Z,14.83
2018-05-11T05:36:12.895Z,14.91
2018-05-11T05:37:12.818Z,14.87
2018-05-11T05:39:04.649Z,14.86
2018-05-11T05:40:04.520Z,15.00
2018-05-11T05:41:56.323Z,15.04
2018-05-11T05:42:56.212Z,15.01
2018-05-11T05:44:47.990Z,15.04
2018-05-11T05:45:47.928Z,14.97
2018-05-11T05:47:39.748Z,15.04
2018-05-11T05:48:39.623Z,14.87
2018-05-11T05:50:31.402Z,15.00
2018-05-11T05:51:31.316Z,14.95
2018-05-11T05:53:23.072Z,14.98
2018-05-11T05:54:23.015Z,15.00
2018-05-11T05:56:14.799Z,15.20
2018-05-11T05:57:14.726Z,15.22
2018-05-11T05:59:06.482Z,15.35
2018-05-11T06:00:06.425Z,15.38
2018-05-11T06:01:58.202Z,15.30
2018-05-11T06:02:58.147Z,15.35
2018-05-11T06:04:49.893Z,15.28
2018-05-11T06:05:49.823Z,15.44
2018-05-11T06:07:41.615Z,15.34
2018-05-11T06:08:41.550Z,15.44
2018-05-11T06:10:33.437Z,15.33
2018-05-11T06:11:33.241Z,15.43
2018-05-11T06:13:25.008Z,15.46
2018-05-11T06:14:24.949Z,15.37
2018-05-11T06:16:16.715Z,15.28
2018-05-11T06:17:16.677Z,15.22
2018-05-11T06:19:08.466Z,15.23
2018-05-11T06:20:08.356Z,15.12
2018-05-11T06:22:00.185Z,15.03
2018-05-11T06:23:00.044Z,15.07
2018-05-11T06:24:51.825Z,15.12
2018-05-11T06:25:51.767Z,15.16
2018-05-11T06:27:43.519Z,15.18
2018-05-11T06:28:43.442Z,15.15
2018-05-11T06:30:35.226Z,15.13
2018-05-11T06:31:35.139Z,15.23
2018-05-11T06:33:26.917Z,15.18
2018-05-11T06:34:26.907Z,15.07
2018-05-11T06:36:18.613Z,15.12
2018-05-11T06:37:18.542Z,14.97
2018-05-11T06:39:10.362Z,15.00
2018-05-11T06:40:10.299Z,14.97
2018-05-11T06:42:02.064Z,15.03
2018-05-11T06:43:02.006Z,15.04
2018-05-11T06:44:53.757Z,15.11
2018-05-11T06:45:53.693Z,15.09
2018-05-11T06:47:45.483Z,15.22
2018-05-11T06:48:45.403Z,15.22
2018-05-11T06:50:37.175Z,15.31
2018-05-11T06:51:37.112Z,15.30
2018-05-11T06:53:28.914Z,15.34
2018-05-11T06:54:28.815Z,15.40
2018-05-11T06:56:20.591Z,15.44
2018-05-11T06:57:20.525Z,15.60
2018-05-11T06:59:12.282Z,15.60
2018-05-11T07:00:12.217Z,15.52
2018-05-11T07:02:04.001Z,15.64
2018-05-11T07:03:03.925Z,15.62
2018-05-11T07:04:55.677Z,15.58
2018-05-11T07:05:55.611Z,15.59
2018-05-11T07:07:47.517Z,15.56
2018-05-11T07:08:47.313Z,15.55
2018-05-11T07:10:39.076Z,15.43
2018-05-11T07:11:39.015Z,15.51
2018-05-11T07:13:30.797Z,15.48
2018-05-11T07:14:30.727Z,15.44
2018-05-11T07:16:22.488Z,15.44
2018-05-11T07:17:22.412Z,15.53
2018-05-11T07:19:14.229Z,15.58
2018-05-11T07:20:14.120Z,15.56
2018-05-11T07:22:05.886Z,15.52
2018-05-11T07:23:05.818Z,15.58
2018-05-11T07:24:57.590Z,15.58
2018-05-11T07:25:57.524Z,15.60
2018-05-11T07:27:49.635Z,15.78
2018-05-11T07:28:49.265Z,15.80
2018-05-11T07:30:41.019Z,15.91
2018-05-11T07:31:40.951Z,15.86
2018-05-11T07:33:32.733Z,15.91
2018-05-11T07:34:32.666Z,15.86
2018-05-11T07:36:24.556Z,15.86
2018-05-11T07:37:24.451Z,15.91
2018-05-11T07:39:16.208Z,15.99
2018-05-11T07:40:16.144Z,15.99
2018-05-11T07:42:07.930Z,16.03
2018-05-11T07:43:07.849Z,16.07
2018-05-11T07:44:59.636Z,15.93
2018-05-11T07:45:59.551Z,15.91
2018-05-11T07:47:51.353Z,15.96
2018-05-11T07:48:51.269Z,15.92
2018-05-11T07:50:43.031Z,15.95
2018-05-11T07:51:42.965Z,15.99
2018-05-11T07:53:34.737Z,16.16
2018-05-11T07:54:34.675Z,16.22
2018-05-11T07:56:26.429Z,16.37
2018-05-11T07:57:26.368Z,16.40
2018-05-11T07:59:18.169Z,16.47
2018-05-11T08:00:18.067Z,16.42
2018-05-11T08:02:09.856Z,16.65
2018-05-11T08:03:09.763Z,16.80
2018-05-11T08:05:01.543Z,16.80
2018-05-11T08:06:01.458Z,16.82
2018-05-11T08:07:53.435Z,17.02
2018-05-11T08:08:53.162Z,17.09
2018-05-11T08:10:44.935Z,17.20
2018-05-11T08:11:44.918Z,17.21
2018-05-11T08:13:36.941Z,17.07
2018-05-11T08:14:37.137Z,17.07
2018-05-11T08:16:28.464Z,17.05
2018-05-11T08:17:28.404Z,17.12
2018-05-11T08:19:20.190Z,17.09
2018-05-11T08:20:20.126Z,17.10
2018-05-11T08:22:11.983Z,17.10
2018-05-11T08:23:11.918Z,17.22
2018-05-11T08:25:03.999Z,17.40
2018-05-11T08:26:03.675Z,17.36
2018-05-11T08:27:55.470Z,17.39
2018-05-11T08:28:55.415Z,17.45
2018-05-11T08:30:47.241Z,17.62
2018-05-11T08:31:47.129Z,17.74
2018-05-11T08:33:39.483Z,17.66
2018-05-11T08:34:38.893Z,17.43
2018-05-11T08:36:30.598Z,17.38
2018-05-11T08:37:30.522Z,17.36
2018-05-11T08:39:22.482Z,17.27
2018-05-11T08:40:22.422Z,17.20
2018-05-11T08:42:14.153Z,17.14
2018-05-11T08:43:14.261Z,17.10
2018-05-11T08:45:05.907Z,17.07
2018-05-11T08:46:05.850Z,17.02
2018-05-11T08:47:57.617Z,17.14
2018-05-11T08:48:57.966Z,17.15
2018-05-11T08:50:49.297Z,17.22
2018-05-11T08:51:49.287Z,17.20
2018-05-11T08:53:40.989Z,17.35
2018-05-11T08:54:40.913Z,17.40
2018-05-11T08:57:08.828Z,17.53
2018-05-11T08:58:08.753Z,17.65
2018-05-11T09:00:00.522Z,17.66
2018-05-11T09:01:00.454Z,17.71
2018-05-11T09:02:52.222Z,17.74
2018-05-11T09:03:52.165Z,17.76
2018-05-11T09:05:44.009Z,17.74
2018-05-11T09:06:43.933Z,17.76
2018-05-11T09:08:35.753Z,17.87
2018-05-11T09:09:35.624Z,17.89
2018-05-11T09:11:27.395Z,18.01
2018-05-11T09:12:27.341Z,17.95
2018-05-11T09:14:19.131Z,17.96
2018-05-11T09:15:19.057Z,18.04
2018-05-11T09:17:10.838Z,18.19
2018-05-11T09:18:10.754Z,18.13
2018-05-11T09:20:02.696Z,17.89
2018-05-11T09:21:02.619Z,17.81
2018-05-11T09:22:54.440Z,17.86
2018-05-11T09:23:54.346Z,17.68
2018-05-11T09:25:46.120Z,17.87
2018-05-11T09:26:46.087Z,17.54
2018-05-11T09:28:37.921Z,17.22
2018-05-11T09:29:37.728Z,17.24
2018-05-11T09:31:29.494Z,17.40
2018-05-11T09:32:29.428Z,17.45
2018-05-11T09:34:21.234Z,17.45
2018-05-11T09:35:21.152Z,17.46
2018-05-11T09:37:12.916Z,17.57
2018-05-11T09:38:12.911Z,17.66
2018-05-11T09:40:04.647Z,17.80
2018-05-11T09:41:04.656Z,17.87
2018-05-11T09:42:56.362Z,18.02
2018-05-11T09:43:56.301Z,17.99
2018-05-11T09:45:48.175Z,18.09
2018-05-11T09:46:48.048Z,17.95
2018-05-11T09:48:39.800Z,18.21
2018-05-11T09:49:39.916Z,18.35
2018-05-11T09:51:31.502Z,18.39
2018-05-11T09:52:31.471Z,18.23
2018-05-11T09:54:23.226Z,18.51
2018-05-11T09:55:23.161Z,18.57
2018-05-11T09:57:14.903Z,18.79
2018-05-11T09:58:14.883Z,18.87
2018-05-11T10:00:06.663Z,18.97
2018-05-11T10:01:06.571Z,19.07
2018-05-11T10:02:58.404Z,19.01
2018-05-11T10:03:58.350Z,19.21
2018-05-11T10:05:50.124Z,19.38
2018-05-11T10:06:50.059Z,19.49
2018-05-11T10:08:41.816Z,19.43
2018-05-11T10:09:41.754Z,19.39
2018-05-11T10:11:33.532Z,19.21
2018-05-11T10:12:33.455Z,19.25
2018-05-11T10:14:25.268Z,19.21
2018-05-11T10:15:25.185Z,19.38
2018-05-11T10:17:16.965Z,19.70
2018-05-11T10:18:16.891Z,19.89
2018-05-11T10:20:08.671Z,20.22
2018-05-11T10:21:08.594Z,20.26
2018-05-11T10:23:00.365Z,20.37
2018-05-11T10:24:00.302Z,20.34
2018-05-11T10:25:52.111Z,20.38
2018-05-11T10:26:52.011Z,20.35
2018-05-11T10:28:43.901Z,20.20
2018-05-11T10:29:43.733Z,20.01
2018-05-11T10:31:35.610Z,20.07
2018-05-11T10:32:35.438Z,19.79
2018-05-11T10:34:27.455Z,19.83
2018-05-11T10:35:27.145Z,19.75
2018-05-11T10:37:18.922Z,19.45
2018-05-11T10:38:18.850Z,19.21
2018-05-11T10:40:10.657Z,18.97
2018-05-11T10:41:10.568Z,19.06
2018-05-11T10:43:02.330Z,19.05
2018-05-11T10:44:02.291Z,19.13
2018-05-11T10:45:54.055Z,19.17
2018-05-11T10:46:53.971Z,19.09
2018-05-11T10:48:45.823Z,19.02
2018-05-11T10:49:45.698Z,19.07
2018-05-11T10:51:37.571Z,19.13
2018-05-11T10:52:37.496Z,18.87
2018-05-11T10:54:29.313Z,18.76
2018-05-11T10:55:29.250Z,18.75
2018-05-11T10:57:21.044Z,18.71
2018-05-11T10:58:20.963Z,18.72
2018-05-11T11:00:12.767Z,18.65
2018-05-11T11:01:12.708Z,18.66
2018-05-11T11:03:04.488Z,18.72
2018-05-11T11:04:04.429Z,18.76
2018-05-11T11:05:56.177Z,18.71
2018-05-11T11:06:56.112Z,18.82
2018-05-11T11:08:47.880Z,18.71
2018-05-11T11:09:47.816Z,18.79
2018-05-11T11:11:39.587Z,18.93
2018-05-11T11:12:39.507Z,19.02
2018-05-11T11:14:31.291Z,18.96
2018-05-11T11:15:31.218Z,18.93
2018-05-11T11:17:23.051Z,18.96
2018-05-11T11:18:22.926Z,18.86
2018-05-11T11:20:14.704Z,18.76
2018-05-11T11:21:14.634Z,18.75
2018-05-11T11:23:06.413Z,18.86
2018-05-11T11:24:06.336Z,18.87
2018-05-11T11:25:58.151Z,18.78
2018-05-11T11:26:58.053Z,18.89
2018-05-11T11:28:49.840Z,18.76
2018-05-11T11:29:49.757Z,18.93
2018-05-11T11:31:41.524Z,18.94
2018-05-11T11:32:41.442Z,18.87
2018-05-11T11:34:33.243Z,18.93
2018-05-11T11:35:33.141Z,19.09
2018-05-11T11:37:24.982Z,19.16
2018-05-11T11:38:24.857Z,19.13
2018-05-11T11:40:16.678Z,19.28
2018-05-11T11:41:16.624Z,19.27
2018-05-11T11:43:08.432Z,19.32
2018-05-11T11:44:08.321Z,19.35
2018-05-11T11:46:00.150Z,19.21
2018-05-11T11:47:00.014Z,19.27
2018-05-11T11:48:51.818Z,19.20
2018-05-11T11:49:51.806Z,19.20
2018-05-11T11:51:43.514Z,19.21
2018-05-11T11:52:43.562Z,19.17
2018-05-11T11:54:35.219Z,19.20
2018-05-11T11:55:35.171Z,19.12
2018-05-11T11:57:26.958Z,19.13
2018-05-11T11:58:26.955Z,19.13
2018-05-11T12:00:18.629Z,18.97
2018-05-11T12:01:18.566Z,18.90
2018-05-11T12:03:10.336Z,18.94
2018-05-11T12:04:10.276Z,18.97
2018-05-11T12:06:02.077Z,18.97
2018-05-11T12:07:02.038Z,19.01
2018-05-11T12:08:53.804Z,19.17
2018-05-11T12:09:53.690Z,19.27
2018-05-11T12:11:45.454Z,19.24
2018-05-11T12:12:45.392Z,19.32
2018-05-11T12:14:37.195Z,19.16
2018-05-11T12:15:37.108Z,19.17
2018-05-11T12:17:28.882Z,19.07
2018-05-11T12:18:28.807Z,19.07
2018-05-11T12:20:20.572Z,19.01
2018-05-11T12:21:20.768Z,19.07
2018-05-11T12:23:12.281Z,19.07
2018-05-11T12:24:12.203Z,19.09
2018-05-11T12:26:04.010Z,19.28
2018-05-11T12:27:03.933Z,19.16
2018-05-11T12:28:57.693Z,19.13
2018-05-11T12:29:57.626Z,19.07
2018-05-11T12:31:49.380Z,18.87
2018-05-11T12:32:49.337Z,18.94
2018-05-11T12:34:41.090Z,18.99
2018-05-11T12:35:41.023Z,19.06
2018-05-11T12:37:32.800Z,18.50
2018-05-11T12:38:32.727Z,18.35
2018-05-11T12:40:24.497Z,18.35
2018-05-11T12:41:24.430Z,18.28
2018-05-11T12:43:16.225Z,18.14
2018-05-11T12:44:16.268Z,18.13
2018-05-11T12:46:07.905Z,18.29
2018-05-11T12:47:07.848Z,18.32
2018-05-11T12:48:59.653Z,18.34
2018-05-11T12:49:59.548Z,18.36
2018-05-11T12:51:51.322Z,18.53
2018-05-11T12:52:51.335Z,18.54
2018-05-11T12:54:43.045Z,18.46
2018-05-11T12:55:42.963Z,18.51
2018-05-11T12:57:34.762Z,18.54
2018-05-11T12:58:34.672Z,18.53
2018-05-11T13:00:26.446Z,18.53
2018-05-11T13:01:26.362Z,18.50
2018-05-11T13:03:18.176Z,18.46
2018-05-11T13:04:18.087Z,18.50
2018-05-11T13:06:09.834Z,18.46
2018-05-11T13:07:09.848Z,18.39
2018-05-11T13:09:01.547Z,18.39
2018-05-11T13:10:01.477Z,18.34
2018-05-11T13:11:53.229Z,18.41
2018-05-11T13:12:53.167Z,18.42
2018-05-11T13:14:44.967Z,18.35
2018-05-11T13:15:44.868Z,18.34
2018-05-11T13:17:36.623Z,18.50
2018-05-11T13:18:36.566Z,18.36
2018-05-11T13:20:28.415Z,18.41
2018-05-11T13:21:28.298Z,18.36
2018-05-11T13:23:20.084Z,18.31
2018-05-11T13:24:20.005Z,18.25
2018-05-11T13:26:11.851Z,17.92
2018-05-11T13:27:11.766Z,17.84
2018-05-11T13:29:03.525Z,18.02
2018-05-11T13:30:03.545Z,18.02
2018-05-11T13:31:55.207Z,18.20
2018-05-11T13:32:55.224Z,18.32
2018-05-11T13:34:46.944Z,18.13
2018-05-11T13:35:46.841Z,18.13
2018-05-11T13:37:38.615Z,18.23
2018-05-11T13:38:38.549Z,18.31
2018-05-11T13:40:30.366Z,18.31
2018-05-11T13:41:30.272Z,18.31
2018-05-11T13:43:22.070Z,18.32
2018-05-11T13:44:21.975Z,18.32
2018-05-11T13:46:13.742Z,18.17
2018-05-11T13:47:13.680Z,18.19
2018-05-11T13:49:05.466Z,18.19
2018-05-11T13:50:05.389Z,18.07
2018-05-11T13:51:57.143Z,17.81
2018-05-11T13:52:57.082Z,17.84
2018-05-11T13:54:48.861Z,17.79
2018-05-11T13:55:48.784Z,17.84
2018-05-11T13:57:40.562Z,17.98
2018-05-11T13:58:40.574Z,17.98
2018-05-11T14:00:32.286Z,18.09
2018-05-11T14:01:32.206Z,18.16
2018-05-11T14:03:23.971Z,18.28
2018-05-11T14:04:23.913Z,18.20
2018-05-11T14:06:15.698Z,18.29
2018-05-11T14:07:15.620Z,18.35
2018-05-11T14:09:07.406Z,18.51
2018-05-11T14:10:07.331Z,18.57
2018-05-11T14:11:59.095Z,18.71
2018-05-11T14:12:59.028Z,18.76
2018-05-11T14:14:50.806Z,18.54
2018-05-11T14:15:50.731Z,18.51
2018-05-11T14:17:42.539Z,18.62
2018-05-11T14:18:42.471Z,18.56
2018-05-11T14:20:34.513Z,18.26
2018-05-11T14:21:34.421Z,18.13
2018-05-11T14:23:26.204Z,17.86
2018-05-11T14:24:26.144Z,17.94
2018-05-11T14:26:17.943Z,18.13
2018-05-11T14:27:17.870Z,18.25
2018-05-11T14:29:09.704Z,18.35
2018-05-11T14:30:09.616Z,18.54
2018-05-11T14:32:01.859Z,18.56
2018-05-11T14:33:01.317Z,18.68
2018-05-11T14:34:53.109Z,18.50
2018-05-11T14:35:53.047Z,18.54
2018-05-11T14:37:44.810Z,18.50
2018-05-11T14:38:44.731Z,18.60
2018-05-11T14:40:36.518Z,18.78
2018-05-11T14:41:36.442Z,18.86
2018-05-11T14:43:28.230Z,18.97
2018-05-11T14:44:28.146Z,18.96
2018-05-11T14:46:19.938Z,19.09
2018-05-11T14:47:19.853Z,18.97
2018-05-11T14:49:11.625Z,18.89
2018-05-11T14:50:11.552Z,18.89
2018-05-11T14:52:03.331Z,18.83
2018-05-11T14:53:03.271Z,18.94
2018-05-11T14:54:55.033Z,18.93
2018-05-11T14:55:54.965Z,18.96
2018-05-11T14:57:46.742Z,18.78
2018-05-11T14:58:46.680Z,18.69
2018-05-11T15:00:38.452Z,18.60
2018-05-11T15:01:38.368Z,18.64
2018-05-11T15:03:30.131Z,18.71
2018-05-11T15:04:30.070Z,18.71
2018-05-11T15:06:21.865Z,18.69
2018-05-11T15:07:21.770Z,18.68
2018-05-11T15:09:13.542Z,18.76
2018-05-11T15:10:13.548Z,18.65
2018-05-11T15:12:05.224Z,18.74
2018-05-11T15:13:05.152Z,18.65
2018-05-11T15:14:56.914Z,18.68
2018-05-11T15:15:56.855Z,18.82
2018-05-11T15:17:48.636Z,18.78
2018-05-11T15:18:48.562Z,18.87
2018-05-11T15:20:40.333Z,18.91
2018-05-11T15:21:40.260Z,18.97
2018-05-11T15:23:32.026Z,18.99
2018-05-11T15:24:31.964Z,18.91
2018-05-11T15:26:23.749Z,18.97
2018-05-11T15:27:23.677Z,18.96
2018-05-11T15:29:15.538Z,19.09
2018-05-11T15:30:15.432Z,19.07
2018-05-11T15:32:07.198Z,18.99
2018-05-11T15:33:07.143Z,18.97
2018-05-11T15:34:58.904Z,19.07
2018-05-11T15:35:58.836Z,19.07
2018-05-11T15:37:50.623Z,18.96
2018-05-11T15:38:50.562Z,18.91
2018-05-11T15:40:42.322Z,18.87
2018-05-11T15:41:42.250Z,18.68
2018-05-11T15:43:34.016Z,18.53
2018-05-11T15:44:34.158Z,18.56
2018-05-11T15:46:25.771Z,18.54
2018-05-11T15:47:25.677Z,18.50
2018-05-11T15:49:17.505Z,18.35
2018-05-11T15:50:17.452Z,18.34
2018-05-11T15:52:09.249Z,18.42
2018-05-11T15:53:09.165Z,18.39
2018-05-11T15:55:00.998Z,18.56
2018-05-11T15:56:00.902Z,18.47
2018-05-11T15:57:52.670Z,18.50
2018-05-11T15:58:52.597Z,18.56
2018-05-11T16:00:44.369Z,18.53
2018-05-11T16:01:44.300Z,18.54
2018-05-11T16:03:36.067Z,18.50
2018-05-11T16:04:35.985Z,18.49
2018-05-11T16:06:27.798Z,18.50
2018-05-11T16:07:27.799Z,18.46
2018-05-11T16:09:19.478Z,18.36
2018-05-11T16:10:19.423Z,18.34
2018-05-11T16:12:11.217Z,18.11
2018-05-11T16:13:11.122Z,18.09
2018-05-11T16:15:02.880Z,18.09
2018-05-11T16:16:02.819Z,17.89
2018-05-11T16:17:54.598Z,17.86
2018-05-11T16:18:54.514Z,17.76
2018-05-11T16:20:46.283Z,17.84
2018-05-11T16:21:46.215Z,17.74
2018-05-11T16:23:37.992Z,17.73
2018-05-11T16:24:37.957Z,17.66
2018-05-11T16:26:29.677Z,17.57
2018-05-11T16:27:29.615Z,17.54
2018-05-11T16:29:21.396Z,17.63
2018-05-11T16:30:21.331Z,17.58
2018-05-11T16:32:13.132Z,17.63
2018-05-11T16:33:13.061Z,17.66
2018-05-11T16:35:04.839Z,17.76
2018-05-11T16:36:04.765Z,17.79
2018-05-11T16:37:56.537Z,17.74
2018-05-11T16:38:56.459Z,17.71
2018-05-11T16:40:48.216Z,17.74
2018-05-11T16:41:48.164Z,17.79
2018-05-11T16:43:39.936Z,17.79
2018-05-11T16:44:39.858Z,17.87
2018-05-11T16:46:31.616Z,17.77
2018-05-11T16:47:31.556Z,17.77
2018-05-11T16:49:23.327Z,17.73
2018-05-11T16:50:23.263Z,17.77
2018-05-11T16:52:15.021Z,17.42
2018-05-11T16:53:14.958Z,17.38
2018-05-11T16:55:06.728Z,17.38
2018-05-11T16:56:06.663Z,17.40
2018-05-11T16:57:58.446Z,17.46
2018-05-11T16:58:58.364Z,17.47
2018-05-11T17:00:50.154Z,17.65
2018-05-11T17:01:50.088Z,17.58
2018-05-11T17:03:41.877Z,17.49
2018-05-11T17:04:41.792Z,17.54
2018-05-11T17:06:33.548Z,17.53
2018-05-11T17:07:33.479Z,17.53
2018-05-11T17:09:25.251Z,17.45
2018-05-11T17:10:25.181Z,17.33
2018-05-11T17:12:16.951Z,17.25
2018-05-11T17:13:16.869Z,17.33
2018-05-11T17:15:08.662Z,17.35
2018-05-11T17:16:08.597Z,17.36
2018-05-11T17:18:00.402Z,17.38
2018-05-11T17:19:00.322Z,17.33
2018-05-11T17:20:52.091Z,17.22
2018-05-11T17:21:52.018Z,17.12
2018-05-11T17:23:43.798Z,16.82
2018-05-11T17:24:43.720Z,16.81
2018-05-11T17:26:35.493Z,16.88
2018-05-11T17:27:35.426Z,16.96
2018-05-11T17:29:27.209Z,17.03
2018-05-11T17:30:27.134Z,16.88
2018-05-11T17:32:18.888Z,16.84
2018-05-11T17:33:18.823Z,16.84
2018-05-11T17:35:10.599Z,16.80
2018-05-11T17:36:10.518Z,16.75
2018-05-11T17:38:02.286Z,16.80
2018-05-11T17:39:02.218Z,16.90
2018-05-11T17:40:54.033Z,16.88
2018-05-11T17:41:53.992Z,16.81
2018-05-11T17:43:45.791Z,16.84
2018-05-11T17:44:45.659Z,16.87
2018-05-11T17:46:37.429Z,16.82
2018-05-11T17:47:37.359Z,16.84
2018-05-11T17:49:29.134Z,16.91
2018-05-11T17:50:29.059Z,16.96
2018-05-11T17:52:20.814Z,16.90
2018-05-11T17:53:20.770Z,17.00
2018-05-11T17:55:12.521Z,17.02
2018-05-11T17:56:12.453Z,16.92
2018-05-11T17:58:04.249Z,16.98
2018-05-11T17:59:04.166Z,17.00
2018-05-11T18:00:55.918Z,17.06
2018-05-11T18:01:55.878Z,17.10
2018-05-11T18:03:47.622Z,17.10
2018-05-11T18:04:47.564Z,17.12
2018-05-11T18:06:39.372Z,17.03
2018-05-11T18:07:39.346Z,17.17
2018-05-11T18:09:31.033Z,17.10
2018-05-11T18:10:30.986Z,17.06
2018-05-11T18:12:22.723Z,17.12
2018-05-11T18:13:22.667Z,17.10
2018-05-11T18:15:14.453Z,17.12
2018-05-11T18:16:14.384Z,17.14
2018-05-11T18:18:06.259Z,17.09
2018-05-11T18:19:06.103Z,17.06
2018-05-11T18:20:57.871Z,16.99
2018-05-11T18:21:57.791Z,16.90
2018-05-11T18:23:49.603Z,16.96
2018-05-11T18:24:49.531Z,16.91
2018-05-11T18:26:41.326Z,16.95